createdAt,value
2022-11-11T00:01:13.792Z,90.37
2022-11-11T00:04:18.206Z,90.21
2022-11-11T00:07:22.780Z,90.65
2022-11-11T00:10:28.803Z,90.49
2022-11-11T00:13:34.467Z,90.25
2022-11-11T00:16:57.161Z,90.35
2022-11-11T00:20:23.110Z,90.36
2022-11-11T00:23:47.672Z,90.67
2022-11-11T00:26:52.315Z,90.85
2022-11-11T00:29:56.968Z,90.88
2022-11-11T00:33:01.379Z,90.46
2022-11-11T00:36:09.169Z,90.59
2022-11-11T00:39:13.814Z,90.47
2022-11-11T00:42:18.577Z,90.56
2022-11-11T00:45:23.184Z,90.98
2022-11-11T00:48:45.817Z,90.49
2022-11-11T00:51:49.807Z,90.58
2022-11-11T00:54:54.111Z,90.91
2022-11-11T00:57:58.503Z,90.39
2022-11-11T01:01:03.210Z,90.84
2022-11-11T01:04:07.691Z,91.19
2022-11-11T01:07:12.129Z,90.81
2022-11-11T01:10:37.233Z,90.73
2022-11-11T01:13:42.102Z,90.89
2022-11-11T01:16:46.125Z,90.85
2022-11-11T01:19:50.241Z,90.64
2022-11-11T01:22:54.518Z,91.03
2022-11-11T01:26:08.140Z,91.16
2022-11-11T01:29:12.824Z,91.32
2022-11-11T01:32:17.416Z,91.02
2022-11-11T01:35:21.866Z,91.00
2022-11-11T01:38:26.653Z,91.47
2022-11-11T01:41:35.241Z,91.12
2022-11-11T01:44:47.165Z,90.76
2022-11-11T01:48:23.763Z,91.28
2022-11-11T01:51:38.327Z,91.19
2022-11-11T01:54:48.489Z,90.99
2022-11-11T01:57:59.567Z,91.42
2022-11-11T02:01:04.133Z,91.43
2022-11-11T02:04:27.752Z,91.10
2022-11-11T02:07:33.755Z,91.41
2022-11-11T02:10:43.271Z,91.58
2022-11-11T02:14:06.488Z,91.41
2022-11-11T02:17:14.062Z,91.17
2022-11-11T02:20:28.127Z,91.39
2022-11-11T02:24:10.214Z,91.12
2022-11-11T02:27:17.301Z,91.50
2022-11-11T02:30:22.325Z,91.48
2022-11-11T02:33:26.827Z,91.46
2022-11-11T02:36:32.783Z,91.37
2022-11-11T02:40:02.628Z,91.20
2022-11-11T02:43:08.165Z,91.56
2022-11-11T02:46:12.568Z,91.28
2022-11-11T02:49:17.057Z,91.47
2022-11-11T02:52:21.384Z,91.93
2022-11-11T02:55:25.850Z,91.87
2022-11-11T02:58:30.354Z,91.47
2022-11-11T03:01:34.966Z,91.57
2022-11-11T03:04:39.535Z,91.32
2022-11-11T03:07:44.517Z,91.47
2022-11-11T03:10:48.866Z,91.77
2022-11-11T03:13:54.850Z,91.68
2022-11-11T03:17:17.922Z,91.23
2022-11-11T03:20:40.976Z,91.47
2022-11-11T03:23:45.207Z,91.32
2022-11-11T03:26:49.480Z,91.36
2022-11-11T03:29:53.860Z,91.48
2022-11-11T03:33:00.150Z,91.47
2022-11-11T03:36:04.736Z,91.26
2022-11-11T03:39:09.030Z,91.28
2022-11-11T03:42:13.506Z,91.55
2022-11-11T03:45:17.948Z,91.18
2022-11-11T03:48:23.134Z,91.44
2022-11-11T03:51:27.756Z,91.54
2022-11-11T03:54:32.153Z,91.63
2022-11-11T03:57:41.007Z,91.45
2022-11-11T04:00:45.666Z,91.57
2022-11-11T04:04:08.666Z,91.65
2022-11-11T04:07:31.450Z,91.61
2022-11-11T04:10:36.203Z,91.56
2022-11-11T04:14:06.158Z,91.60
2022-11-11T04:17:10.555Z,91.27
2022-11-11T04:20:44.088Z,91.67
2022-11-11T04:23:48.671Z,91.50
2022-11-11T04:26:55.330Z,91.64
2022-11-11T04:29:59.720Z,91.43
2022-11-11T04:33:04.151Z,91.61
2022-11-11T04:36:08.791Z,91.87
2022-11-11T04:39:31.885Z,91.59
2022-11-11T04:42:37.232Z,91.82
2022-11-11T04:45:41.542Z,91.62
2022-11-11T04:48:45.922Z,91.91
2022-11-11T04:52:08.921Z,91.57
2022-11-11T04:55:31.588Z,91.69
2022-11-11T04:58:35.876Z,91.55
2022-11-11T05:01:58.857Z,91.72
2022-11-11T05:05:03.475Z,91.45
2022-11-11T05:08:26.683Z,91.54
2022-11-11T05:11:33.621Z,91.40
2022-11-11T05:14:56.659Z,91.70
2022-11-11T05:18:19.423Z,91.79
2022-11-11T05:21:28.067Z,91.54
2022-11-11T05:24:51.059Z,91.53
2022-11-11T05:27:59.070Z,91.87
2022-11-11T05:31:03.462Z,91.49
2022-11-11T05:34:08.073Z,91.59
2022-11-11T05:37:13.158Z,91.49
2022-11-11T05:40:17.410Z,91.59
2022-11-11T05:43:21.750Z,92.03
2022-11-11T05:46:26.702Z,91.73
2022-11-11T05:49:31.377Z,91.95
2022-11-11T05:52:35.887Z,92.12
2022-11-11T05:55:40.172Z,92.37
2022-11-11T05:58:49.529Z,91.86
2022-11-11T06:01:54.649Z,91.79
2022-11-11T06:04:59.301Z,92.06
2022-11-11T06:08:05.506Z,91.88
2022-11-11T06:11:09.916Z,91.92
2022-11-11T06:14:14.074Z,91.93
2022-11-11T06:17:18.382Z,91.66
2022-11-11T06:20:22.464Z,92.09
2022-11-11T06:23:28.593Z,91.89
2022-11-11T06:26:32.803Z,92.09
2022-11-11T06:29:37.130Z,92.09
2022-11-11T06:32:41.432Z,91.99
2022-11-11T06:35:45.708Z,91.69
2022-11-11T06:38:50.051Z,91.97
2022-11-11T06:41:54.511Z,92.26
2022-11-11T06:44:58.868Z,91.80
2022-11-11T06:48:04.441Z,91.78
2022-11-11T06:51:11.136Z,91.91
2022-11-11T06:54:15.240Z,91.97
2022-11-11T06:57:19.531Z,92.04
2022-11-11T07:00:23.964Z,92.08
2022-11-11T07:03:28.603Z,92.02
2022-11-11T07:06:33.022Z,92.15
2022-11-11T07:09:37.181Z,92.15
2022-11-11T07:12:42.335Z,92.00
2022-11-11T07:15:47.068Z,92.46
2022-11-11T07:18:52.290Z,92.41
2022-11-11T07:21:56.723Z,92.04
2022-11-11T07:25:01.136Z,92.49
2022-11-11T07:28:05.489Z,92.31
2022-11-11T07:31:10.005Z,92.48
2022-11-11T07:34:14.329Z,92.61
2022-11-11T07:37:18.868Z,92.30
2022-11-11T07:40:23.248Z,92.39
2022-11-11T07:43:27.599Z,92.17
2022-11-11T07:46:31.825Z,92.25
2022-11-11T07:49:36.666Z,92.33
2022-11-11T07:52:41.587Z,92.33
2022-11-11T07:55:46.698Z,92.43
2022-11-11T07:58:51.090Z,92.50
2022-11-11T08:01:55.511Z,92.76
2022-11-11T08:04:59.873Z,92.69
2022-11-11T08:08:08.796Z,92.41
2022-11-11T08:11:15.915Z,92.81
2022-11-11T08:14:20.382Z,92.38
2022-11-11T08:17:25.070Z,92.61
2022-11-11T08:20:29.997Z,92.70
2022-11-11T08:26:58.688Z,92.33
2022-11-11T08:30:04.836Z,92.78
2022-11-11T08:33:32.340Z,92.54
2022-11-11T08:36:34.416Z,92.50
2022-11-11T08:39:39.132Z,93.07
2022-11-11T08:42:43.672Z,92.79
2022-11-11T08:45:48.767Z,93.04
2022-11-11T08:48:53.057Z,92.75
2022-11-11T08:51:57.372Z,93.02
2022-11-11T08:55:01.713Z,92.98
2022-11-11T08:58:07.244Z,92.81
2022-11-11T09:01:13.880Z,93.03
2022-11-11T09:07:42.922Z,93.23
2022-11-11T09:10:47.315Z,93.22
2022-11-11T09:13:51.652Z,93.29
2022-11-11T09:16:56.188Z,93.21
2022-11-11T09:20:00.615Z,93.05
2022-11-11T09:23:05.243Z,93.08
2022-11-11T09:26:09.321Z,93.20
2022-11-11T09:29:13.757Z,93.00
2022-11-11T09:32:18.129Z,93.24
2022-11-11T09:35:22.630Z,93.29
2022-11-11T09:38:26.788Z,93.24
2022-11-11T09:42:06.803Z,93.21
2022-11-11T09:45:31.376Z,93.15
2022-11-11T09:49:12.816Z,93.37
2022-11-11T09:52:26.335Z,93.38
2022-11-11T09:55:30.626Z,93.31
2022-11-11T09:58:41.443Z,93.11
2022-11-11T10:01:50.635Z,93.41
2022-11-11T10:05:02.786Z,93.40
2022-11-11T10:08:13.555Z,93.31
2022-11-11T10:11:44.670Z,93.11
2022-11-11T10:14:51.255Z,93.17
2022-11-11T10:18:05.311Z,93.15
2022-11-11T10:21:16.694Z,93.35
2022-11-11T10:24:50.975Z,93.23
2022-11-11T10:27:59.790Z,93.26
2022-11-11T10:31:12.905Z,93.18
2022-11-11T10:34:19.908Z,93.09
2022-11-11T10:38:02.034Z,93.10
2022-11-11T10:41:30.313Z,93.09
2022-11-11T10:44:36.369Z,93.25
2022-11-11T10:48:00.274Z,92.80
2022-11-11T10:51:06.171Z,93.57
2022-11-11T10:54:16.662Z,92.82
2022-11-11T10:57:29.563Z,93.10
2022-11-11T11:00:42.624Z,93.13
2022-11-11T11:03:55.503Z,92.90
2022-11-11T11:07:03.740Z,93.23
2022-11-11T11:10:16.983Z,92.68
2022-11-11T11:13:34.329Z,93.34
2022-11-11T11:16:51.270Z,93.15
2022-11-11T11:20:16.840Z,93.12
2022-11-11T11:23:37.260Z,93.11
2022-11-11T11:26:49.779Z,92.88
2022-11-11T11:30:13.314Z,92.99
2022-11-11T11:33:20.904Z,92.95
2022-11-11T11:36:25.351Z,92.57
2022-11-11T11:39:37.340Z,92.59
2022-11-11T11:42:41.909Z,92.51
2022-11-11T11:45:55.920Z,92.46
2022-11-11T11:49:18.329Z,92.78
2022-11-11T11:52:48.783Z,92.82
2022-11-11T11:56:04.934Z,92.38
2022-11-11T11:59:21.394Z,92.83
2022-11-11T12:03:00.257Z,92.57
2022-11-11T12:06:34.251Z,92.47
2022-11-11T12:09:56.947Z,92.38
2022-11-11T12:13:33.813Z,91.72
2022-11-11T12:16:47.289Z,91.92
2022-11-11T12:20:20.861Z,92.03
2022-11-11T12:23:28.071Z,92.33
2022-11-11T12:26:47.755Z,92.05
2022-11-11T12:29:58.392Z,92.28
2022-11-11T12:33:10.179Z,92.22
2022-11-11T12:36:35.091Z,91.60
2022-11-11T12:40:01.022Z,91.32
2022-11-11T12:43:26.459Z,91.66
2022-11-11T12:47:12.879Z,91.14
2022-11-11T12:50:39.171Z,91.62
2022-11-11T12:53:43.802Z,91.25
2022-11-11T12:57:06.752Z,91.46
2022-11-11T13:00:26.213Z,91.36
2022-11-11T13:03:54.497Z,91.89
2022-11-11T13:07:40.602Z,91.65
2022-11-11T13:11:15.491Z,91.21
2022-11-11T13:14:42.321Z,90.89
2022-11-11T13:17:46.877Z,91.60
2022-11-11T13:21:01.408Z,91.65
2022-11-11T13:24:12.564Z,91.45
2022-11-11T13:27:20.323Z,91.52
2022-11-11T13:30:53.538Z,91.55
2022-11-11T13:34:04.977Z,91.14
2022-11-11T13:37:21.791Z,91.04
2022-11-11T13:40:45.950Z,91.64
2022-11-11T13:43:52.746Z,90.68
2022-11-11T13:47:07.209Z,90.86
2022-11-11T13:50:26.246Z,90.55
2022-11-11T13:53:32.379Z,91.16
2022-11-11T13:56:46.374Z,90.90
2022-11-11T14:00:00.689Z,90.33
2022-11-11T14:03:33.127Z,90.34
2022-11-11T14:06:51.222Z,90.30
2022-11-11T14:10:02.720Z,90.74
2022-11-11T14:13:24.061Z,90.24
2022-11-11T14:16:37.464Z,90.20
2022-11-11T14:19:41.665Z,90.41
2022-11-11T14:22:45.876Z,90.93
2022-11-11T14:25:52.260Z,90.69
2022-11-11T14:29:04.503Z,91.11
2022-11-11T14:32:08.723Z,90.28
2022-11-11T14:35:29.231Z,90.99
2022-11-11T14:38:39.408Z,90.39
2022-11-11T14:41:52.880Z,90.75
2022-11-11T14:44:57.270Z,90.97
2022-11-11T14:48:01.324Z,91.10
2022-11-11T14:51:38.536Z,90.29
2022-11-11T14:54:52.120Z,90.69
2022-11-11T14:58:14.477Z,90.35
2022-11-11T15:01:20.848Z,90.53
2022-11-11T15:04:27.430Z,90.42
2022-11-11T15:07:40.603Z,90.13
2022-11-11T15:11:12.730Z,90.42
2022-11-11T15:14:29.180Z,90.04
2022-11-11T15:17:49.803Z,90.59
2022-11-11T15:21:09.199Z,89.88
2022-11-11T15:24:34.104Z,90.43
2022-11-11T15:27:58.575Z,90.63
2022-11-11T15:31:23.717Z,89.92
2022-11-11T15:34:40.487Z,89.75
2022-11-11T15:37:57.481Z,90.35
2022-11-11T15:41:02.367Z,90.42
2022-11-11T15:44:18.250Z,89.90
2022-11-11T15:47:24.566Z,90.05
2022-11-11T15:50:36.971Z,89.96
2022-11-11T15:53:41.239Z,89.85
2022-11-11T15:56:45.619Z,89.93
2022-11-11T15:59:50.101Z,90.07
2022-11-11T16:02:56.473Z,89.98
2022-11-11T16:06:04.182Z,90.00
2022-11-11T16:09:12.952Z,90.01
2022-11-11T16:12:24.287Z,90.25
2022-11-11T16:15:40.862Z,90.06
2022-11-11T16:18:54.760Z,90.50
2022-11-11T16:22:21.534Z,90.40
2022-11-11T16:25:26.452Z,90.32
2022-11-11T16:28:46.885Z,90.16
2022-11-11T16:31:51.438Z,90.23
2022-11-11T16:34:57.372Z,90.66
2022-11-11T16:38:04.037Z,90.38
2022-11-11T16:41:28.564Z,90.51
2022-11-11T16:44:44.261Z,90.48
2022-11-11T16:47:49.781Z,90.20
2022-11-11T16:51:02.075Z,90.40
2022-11-11T16:54:17.463Z,90.14
2022-11-11T16:57:30.113Z,90.40
2022-11-11T17:00:34.964Z,90.01
2022-11-11T17:03:53.559Z,90.57
2022-11-11T17:07:02.251Z,90.30
2022-11-11T17:10:18.173Z,89.94
2022-11-11T17:13:22.814Z,90.30
2022-11-11T17:16:27.473Z,90.29
2022-11-11T17:19:33.330Z,90.56
2022-11-11T17:22:37.768Z,90.49
2022-11-11T17:25:41.956Z,90.35
2022-11-11T17:28:46.236Z,90.39
2022-11-11T17:31:50.929Z,90.24
2022-11-11T17:34:55.448Z,90.32
2022-11-11T17:37:59.881Z,90.42
2022-11-11T17:41:04.648Z,90.47
2022-11-11T17:44:09.139Z,90.10
2022-11-11T17:47:13.641Z,90.48
2022-11-11T17:50:18.006Z,90.67
2022-11-11T17:53:22.373Z,90.75
2022-11-11T17:56:27.021Z,90.85
2022-11-11T17:59:31.299Z,90.86
2022-11-11T18:02:35.812Z,90.76
2022-11-11T18:05:40.206Z,90.95
2022-11-11T18:08:44.633Z,90.95
2022-11-11T18:11:49.104Z,90.75
2022-11-11T18:14:53.492Z,90.69
2022-11-11T18:17:58.057Z,90.77
2022-11-11T18:21:04.813Z,91.07
2022-11-11T18:24:10.708Z,90.94
2022-11-11T18:27:16.177Z,91.05
2022-11-11T18:30:22.411Z,90.77
2022-11-11T18:33:27.079Z,90.66
2022-11-11T18:36:31.823Z,91.18
2022-11-11T18:39:36.109Z,91.31
2022-11-11T18:42:40.573Z,90.86
2022-11-11T18:45:44.946Z,90.53
2022-11-11T18:48:49.288Z,90.84
2022-11-11T18:51:54.054Z,90.81
2022-11-11T18:54:58.484Z,91.08
2022-11-11T18:58:03.346Z,90.74
2022-11-11T19:01:22.030Z,90.66
2022-11-11T19:04:27.191Z,91.02
2022-11-11T19:07:31.302Z,90.74
2022-11-11T19:10:35.797Z,90.70
2022-11-11T19:13:40.371Z,91.00
2022-11-11T19:16:47.410Z,90.89
2022-11-11T19:19:55.450Z,90.99
2022-11-11T19:22:59.993Z,90.89
2022-11-11T19:26:04.983Z,91.41
2022-11-11T19:29:10.372Z,90.90
2022-11-11T19:32:14.560Z,90.96
2022-11-11T19:35:19.100Z,91.26
2022-11-11T19:38:23.253Z,91.01
2022-11-11T19:41:29.667Z,91.37
2022-11-11T19:44:34.133Z,91.47
2022-11-11T19:47:38.324Z,91.28
2022-11-11T19:50:43.185Z,91.16
2022-11-11T19:53:51.289Z,91.36
2022-11-11T19:56:59.234Z,91.17
2022-11-11T20:00:04.206Z,91.01
2022-11-11T20:03:08.829Z,91.44
2022-11-11T20:06:35.025Z,91.57
2022-11-11T20:09:39.645Z,91.42
2022-11-11T20:12:44.189Z,91.48
2022-11-11T20:15:48.331Z,91.36
2022-11-11T20:18:56.971Z,90.99
2022-11-11T20:22:05.939Z,91.44
2022-11-11T20:25:10.497Z,91.35
2022-11-11T20:28:14.911Z,90.98
2022-11-11T20:31:19.488Z,91.07
2022-11-11T20:34:23.522Z,91.44
2022-11-11T20:37:27.790Z,90.99
2022-11-11T20:40:32.360Z,91.15
2022-11-11T20:43:37.129Z,91.20
2022-11-11T20:46:41.588Z,91.17
2022-11-11T20:49:47.716Z,91.36
2022-11-11T20:52:52.348Z,91.40
2022-11-11T20:56:06.291Z,91.09
2022-11-11T20:59:10.592Z,91.49
2022-11-11T21:02:18.619Z,91.12
2022-11-11T21:05:27.037Z,91.52
2022-11-11T21:08:33.213Z,91.16
2022-11-11T21:11:38.871Z,91.24
2022-11-11T21:14:44.950Z,91.56
2022-11-11T21:17:48.975Z,91.27
2022-11-11T21:20:53.347Z,91.31
2022-11-11T21:24:03.214Z,91.43
2022-11-11T21:27:07.682Z,91.39
2022-11-11T21:30:12.190Z,91.14
2022-11-11T21:33:16.545Z,91.22
2022-11-11T21:36:23.341Z,91.34
2022-11-11T21:39:27.554Z,91.46
2022-11-11T21:42:31.739Z,91.32
2022-11-11T21:45:36.057Z,91.41
2022-11-11T21:48:40.599Z,91.38
2022-11-11T21:51:44.828Z,91.35
2022-11-11T21:54:50.354Z,91.69
2022-11-11T21:57:54.750Z,91.70
2022-11-11T22:01:16.713Z,91.56
2022-11-11T22:04:20.984Z,91.55
2022-11-11T22:07:27.113Z,91.42
2022-11-11T22:10:31.796Z,91.48
2022-11-11T22:13:38.047Z,91.96
2022-11-11T22:16:42.519Z,91.43
2022-11-11T22:19:46.584Z,91.82
2022-11-11T22:22:50.870Z,91.78
2022-11-11T22:26:00.156Z,91.41
2022-11-11T22:29:05.167Z,91.34
2022-11-11T22:32:09.469Z,91.38
2022-11-11T22:35:14.190Z,91.72
2022-11-11T22:38:18.913Z,91.47
2022-11-11T22:41:28.930Z,91.30
2022-11-11T22:44:33.266Z,91.63
2022-11-11T22:47:37.473Z,91.43
2022-11-11T22:50:41.827Z,91.52
2022-11-11T22:53:46.620Z,91.89
2022-11-11T22:56:51.307Z,91.55
2022-11-11T22:59:59.047Z,91.41
2022-11-11T23:03:03.885Z,91.82
2022-11-11T23:06:10.069Z,91.92
2022-11-11T23:09:14.627Z,92.17
2022-11-11T23:12:19.114Z,91.99
2022-11-11T23:15:23.325Z,92.33
2022-11-11T23:18:28.411Z,91.73
2022-11-11T23:21:33.290Z,91.95
2022-11-11T23:24:37.985Z,91.95
2022-11-11T23:27:42.191Z,91.74
2022-11-11T23:30:46.888Z,91.80
2022-11-11T23:33:53.797Z,91.88
2022-11-11T23:36:57.927Z,91.93
2022-11-11T23:40:02.719Z,92.10
2022-11-11T23:43:07.190Z,92.15
2022-11-11T23:46:11.853Z,92.13
2022-11-11T23:49:16.326Z,92.02
2022-11-11T23:52:20.678Z,92.27
2022-11-11T23:55:25.187Z,91.86
2022-11-11T23:58:30.051Z,91.77
